createdAt,value
2018-11-10T00:00:49.002Z,38.80
2018-11-10T00:05:41.663Z,39.37
2018-11-10T00:10:34.365Z,37.80
2018-11-10T00:15:27.321Z,38.53
2018-11-10T00:20:20.062Z,39.00
2018-11-10T00:25:13.727Z,38.43
2018-11-10T00:30:08.923Z,38.57
2018-11-10T00:35:01.829Z,37.53
2018-11-10T00:39:54.554Z,37.77
2018-11-10T00:44:47.210Z,38.67
2018-11-10T00:49:40.021Z,37.73
2018-11-10T00:54:32.787Z,37.67
2018-11-10T00:59:25.616Z,39.03
2018-11-10T01:04:18.314Z,38.40
2018-11-10T01:09:11.059Z,39.60
2018-11-10T01:14:03.928Z,37.70
2018-11-10T01:19:06.033Z,39.47
2018-11-10T01:29:04.456Z,39.30
2018-11-10T01:33:57.164Z,37.60
2018-11-10T01:38:49.907Z,37.67
2018-11-10T01:43:42.607Z,38.63
2018-11-10T01:48:35.312Z,39.23
2018-11-10T01:53:28.001Z,37.60
2018-11-10T01:58:20.698Z,37.43
2018-11-10T02:03:13.418Z,37.77
2018-11-10T02:08:06.250Z,35.63
2018-11-10T02:12:58.935Z,36.43
2018-11-10T02:17:51.634Z,37.67
2018-11-10T02:22:44.353Z,38.17
2018-11-10T02:27:37.080Z,37.47
2018-11-10T02:32:29.859Z,37.40
2018-11-10T02:37:22.534Z,38.43
2018-11-10T02:42:15.197Z,40.00
2018-11-10T02:47:07.945Z,35.87
2018-11-10T02:52:00.618Z,36.60
2018-11-10T02:56:53.351Z,35.37
2018-11-10T03:01:46.077Z,33.67
2018-11-10T03:06:38.818Z,34.33
2018-11-10T03:11:31.510Z,34.73
2018-11-10T03:16:24.274Z,36.10
2018-11-10T03:21:16.923Z,36.60
2018-11-10T03:26:09.610Z,35.77
2018-11-10T03:31:02.267Z,36.10
2018-11-10T03:35:54.985Z,35.80
2018-11-10T03:40:47.682Z,35.50
2018-11-10T03:45:40.379Z,35.93
2018-11-10T03:50:33.084Z,34.77
2018-11-10T03:55:25.751Z,34.23
2018-11-10T04:00:18.569Z,34.70
2018-11-10T04:05:12.190Z,36.13
2018-11-10T04:10:05.258Z,35.43
2018-11-10T04:14:57.964Z,36.20
2018-11-10T04:19:50.754Z,35.80
2018-11-10T04:24:43.439Z,35.77
2018-11-10T04:29:36.177Z,33.77
2018-11-10T04:34:28.819Z,35.70
2018-11-10T04:39:21.498Z,33.93
2018-11-10T04:44:14.176Z,33.73
2018-11-10T04:49:06.894Z,33.30
2018-11-10T04:53:59.542Z,33.30
2018-11-10T04:58:52.193Z,31.50
2018-11-10T05:03:44.904Z,33.33
2018-11-10T05:08:37.613Z,31.67
2018-11-10T05:13:30.463Z,31.53
2018-11-10T05:18:23.209Z,30.63
2018-11-10T05:23:15.962Z,33.43
2018-11-10T05:28:08.658Z,30.70
2018-11-10T05:33:01.458Z,33.40
2018-11-10T05:37:54.121Z,33.13
2018-11-10T05:42:46.784Z,32.27
2018-11-10T05:47:39.466Z,31.07
2018-11-10T05:52:32.159Z,32.70
2018-11-10T05:57:24.987Z,30.77
2018-11-10T06:02:17.637Z,30.67
2018-11-10T06:07:10.326Z,31.47
2018-11-10T06:12:03.072Z,30.30
2018-11-10T06:16:55.754Z,31.83
2018-11-10T06:21:48.485Z,30.27
2018-11-10T06:26:41.232Z,30.43
2018-11-10T06:31:33.834Z,30.90
2018-11-10T06:36:26.667Z,31.23
2018-11-10T06:41:19.578Z,29.30
2018-11-10T06:46:12.355Z,29.47
2018-11-10T06:51:05.092Z,28.17
2018-11-10T06:55:57.814Z,30.03
2018-11-10T07:00:50.578Z,27.30
2018-11-10T07:05:43.229Z,29.10
2018-11-10T07:10:35.928Z,28.67
2018-11-10T07:15:28.712Z,27.60
2018-11-10T07:20:21.697Z,29.73
2018-11-10T07:25:16.102Z,28.67
2018-11-10T07:30:11.444Z,30.37
2018-11-10T07:35:05.012Z,30.20
2018-11-10T07:39:57.868Z,30.50
2018-11-10T07:44:50.911Z,29.87
2018-11-10T07:49:43.877Z,30.60
2018-11-10T07:54:36.768Z,30.80
2018-11-10T07:59:29.683Z,32.83
2018-11-10T08:04:22.675Z,31.80
2018-11-10T08:09:15.660Z,31.53
2018-11-10T08:14:08.535Z,33.73
2018-11-10T08:19:01.579Z,33.57
2018-11-10T08:23:54.524Z,33.67
2018-11-10T08:28:47.448Z,33.83
2018-11-10T08:33:40.408Z,35.33
2018-11-10T08:38:33.388Z,34.83
2018-11-10T08:43:26.312Z,34.63
2018-11-10T08:48:19.108Z,34.70
2018-11-10T08:53:11.963Z,34.70
2018-11-10T08:58:05.456Z,33.93
2018-11-10T09:02:58.478Z,35.47
2018-11-10T09:07:51.575Z,36.10
2018-11-10T09:12:44.710Z,36.57
2018-11-10T09:17:37.780Z,35.23
2018-11-10T09:22:30.580Z,37.80
2018-11-10T09:27:25.290Z,35.83
2018-11-10T09:32:19.637Z,35.57
2018-11-10T09:37:14.918Z,35.77
2018-11-10T09:42:13.576Z,36.43
2018-11-10T09:47:06.693Z,36.77
2018-11-10T09:51:59.883Z,35.77
2018-11-10T09:56:54.869Z,35.00
2018-11-10T10:01:48.047Z,35.50
2018-11-10T10:06:40.636Z,35.20
2018-11-10T10:11:33.495Z,34.90
2018-11-10T10:16:26.512Z,35.53
2018-11-10T10:21:19.517Z,34.33
2018-11-10T10:26:12.410Z,33.80
2018-11-10T10:31:05.439Z,33.70
2018-11-10T10:35:58.454Z,34.53
2018-11-10T10:40:51.518Z,33.40
2018-11-10T10:45:44.371Z,33.23
2018-11-10T10:50:37.246Z,31.60
2018-11-10T10:55:30.101Z,32.93
2018-11-10T11:00:28.861Z,32.40
2018-11-10T11:05:28.048Z,31.90
2018-11-10T11:10:22.296Z,30.73
2018-11-10T11:15:15.061Z,30.70
2018-11-10T11:20:07.864Z,31.80
2018-11-10T11:25:00.755Z,31.77
2018-11-10T11:29:53.588Z,28.80
2018-11-10T11:34:46.369Z,30.60
2018-11-10T11:39:39.275Z,30.13
2018-11-10T11:44:32.110Z,29.10
2018-11-10T11:49:27.037Z,28.43
2018-11-10T11:54:19.826Z,29.33
2018-11-10T11:59:12.844Z,28.23
2018-11-10T12:04:10.874Z,29.00
2018-11-10T12:09:06.558Z,27.00
2018-11-10T12:13:59.338Z,26.97
2018-11-10T12:18:52.190Z,26.17
2018-11-10T12:23:44.982Z,26.93
2018-11-10T12:28:37.710Z,27.03
2018-11-10T12:33:30.466Z,26.63
2018-11-10T12:38:23.257Z,25.90
2018-11-10T12:43:15.961Z,25.03
2018-11-10T12:48:08.741Z,26.43
2018-11-10T12:53:02.062Z,26.57
2018-11-10T12:57:56.879Z,26.07
2018-11-10T13:02:49.901Z,25.37
2018-11-10T13:07:49.995Z,26.47
2018-11-10T13:12:43.635Z,25.90
2018-11-10T13:17:37.003Z,26.43
2018-11-10T13:22:30.213Z,25.00
2018-11-10T13:27:23.150Z,25.33
2018-11-10T13:32:16.096Z,25.73
2018-11-10T13:37:09.015Z,24.63
2018-11-10T13:42:03.155Z,24.63
2018-11-10T13:46:55.968Z,24.60
2018-11-10T13:51:49.559Z,25.17
2018-11-10T13:56:42.504Z,25.03
2018-11-10T14:01:35.326Z,24.70
2018-11-10T14:06:28.123Z,24.63
2018-11-10T14:11:20.978Z,24.10
2018-11-10T14:16:27.957Z,25.63
2018-11-10T14:21:21.579Z,24.73
2018-11-10T14:26:15.191Z,24.47
2018-11-10T14:31:08.260Z,24.97
2018-11-10T14:36:01.310Z,23.80
2018-11-10T14:40:54.230Z,23.80
2018-11-10T14:45:47.131Z,24.17
2018-11-10T14:50:39.911Z,23.43
2018-11-10T14:55:32.818Z,23.07
2018-11-10T15:00:27.831Z,24.43
2018-11-10T15:05:20.694Z,23.40
2018-11-10T15:10:14.830Z,22.40
2018-11-10T15:15:09.672Z,22.40
2018-11-10T15:20:02.570Z,22.97
2018-11-10T15:24:55.351Z,22.60
2018-11-10T15:29:48.445Z,22.80
2018-11-10T15:34:41.262Z,22.80
2018-11-10T15:39:34.246Z,22.80
2018-11-10T15:44:27.796Z,23.73
2018-11-10T15:49:20.587Z,24.33
2018-11-10T15:54:13.620Z,24.30
2018-11-10T15:59:06.427Z,26.47
2018-11-10T16:03:59.771Z,24.63
2018-11-10T16:09:10.920Z,25.57
2018-11-10T16:14:19.448Z,25.83
2018-11-10T16:19:32.515Z,24.70
2018-11-10T16:24:27.288Z,26.63
2018-11-10T16:29:20.883Z,27.27
2018-11-10T16:34:16.035Z,25.03
2018-11-10T17:23:25.472Z,26.20
2018-11-10T17:28:32.923Z,26.73
2018-11-10T17:33:34.572Z,27.87
2018-11-10T17:38:27.835Z,31.30
2018-11-10T17:43:21.070Z,28.70
2018-11-10T17:48:14.551Z,28.90
2018-11-10T17:53:07.880Z,30.57
2018-11-10T17:58:01.054Z,30.70
2018-11-10T18:02:53.889Z,30.77
2018-11-10T18:07:46.708Z,29.40
2018-11-10T18:12:39.604Z,31.27
2018-11-10T18:17:32.311Z,29.87
2018-11-10T18:22:24.981Z,30.90
2018-11-10T18:27:17.957Z,30.57
2018-11-10T18:32:10.850Z,30.67
2018-11-10T18:37:03.501Z,30.00
2018-11-10T18:41:56.096Z,30.17
2018-11-10T18:46:48.681Z,31.57
2018-11-10T18:51:41.317Z,29.90
2018-11-10T18:56:34.544Z,31.10
2018-11-10T19:01:27.401Z,30.60
2018-11-10T19:06:20.070Z,32.03
2018-11-10T19:11:12.706Z,31.00
2018-11-10T19:16:05.497Z,32.00
2018-11-10T19:20:58.195Z,31.23
2018-11-10T19:25:50.821Z,32.57
2018-11-10T19:30:43.471Z,30.27
2018-11-10T19:35:36.027Z,31.60
2018-11-10T19:40:28.640Z,31.67
2018-11-10T19:45:21.213Z,33.17
2018-11-10T19:50:14.279Z,33.17
2018-11-10T19:55:11.230Z,33.63
2018-11-10T20:00:09.066Z,33.00
2018-11-10T20:05:01.700Z,33.23
2018-11-10T20:09:54.295Z,34.37
2018-11-10T20:14:47.004Z,33.73
2018-11-10T20:19:39.712Z,34.33
2018-11-10T20:24:32.414Z,33.43
2018-11-10T20:29:25.072Z,33.97
2018-11-10T20:34:17.639Z,34.30
2018-11-10T20:39:10.636Z,35.10
2018-11-10T20:44:03.306Z,34.17
2018-11-10T20:48:55.999Z,34.77
2018-11-10T20:53:48.790Z,35.73
2018-11-10T20:58:41.436Z,34.93
2018-11-10T21:03:34.078Z,33.77
2018-11-10T21:08:26.772Z,35.50
2018-11-10T21:13:19.482Z,36.30
2018-11-10T21:18:12.106Z,35.57
2018-11-10T21:23:04.942Z,36.77
2018-11-10T21:27:57.593Z,37.03
2018-11-10T21:32:50.268Z,35.80
2018-11-10T21:37:42.916Z,36.03
2018-11-10T21:42:35.549Z,35.57
2018-11-10T21:47:28.233Z,35.47
2018-11-10T21:52:20.854Z,37.00
2018-11-10T21:57:13.494Z,36.83
2018-11-10T22:02:06.237Z,37.27
2018-11-10T22:06:59.173Z,35.67
2018-11-10T22:11:51.846Z,35.77
2018-11-10T22:16:44.742Z,35.60
2018-11-10T22:21:37.316Z,35.33
2018-11-10T22:26:29.963Z,36.20
2018-11-10T22:31:22.495Z,36.30
2018-11-10T22:36:15.077Z,41.00
2018-11-10T22:41:07.744Z,34.97
2018-11-10T22:46:00.319Z,36.37
2018-11-10T22:50:53.038Z,35.33
2018-11-10T22:55:45.820Z,36.30
2018-11-10T23:00:43.083Z,35.70
2018-11-10T23:05:35.661Z,36.70
2018-11-10T23:10:28.530Z,36.03
2018-11-10T23:15:21.196Z,34.83
2018-11-10T23:20:15.150Z,36.57
2018-11-10T23:25:09.962Z,36.07
2018-11-10T23:30:02.729Z,35.63
2018-11-10T23:34:55.318Z,35.83
2018-11-10T23:39:48.000Z,35.53
2018-11-10T23:44:40.654Z,35.77
2018-11-10T23:49:33.643Z,34.80
2018-11-10T23:54:26.391Z,35.97
2018-11-10T23:59:19.147Z,34.60
